createdAt,value
2024-03-26T00:00:39.631Z,61.39
2024-03-26T00:03:27.646Z,64.46
2024-03-26T00:05:55.867Z,63.40
2024-03-26T00:08:24.480Z,65.22
2024-03-26T00:10:52.774Z,63.04
2024-03-26T00:13:21.077Z,62.15
2024-03-26T00:15:49.269Z,61.23
2024-03-26T00:18:17.368Z,63.04
2024-03-26T00:20:45.541Z,62.40
2024-03-26T00:23:14.774Z,63.00
2024-03-26T00:25:43.207Z,62.53
2024-03-26T00:28:11.472Z,62.74
2024-03-26T00:30:39.674Z,62.35
2024-03-26T00:33:07.917Z,62.73
2024-03-26T00:35:36.595Z,63.12
2024-03-26T00:38:05.304Z,62.08
2024-03-26T00:40:33.784Z,61.88
2024-03-26T00:43:02.052Z,61.57
2024-03-26T00:45:38.011Z,62.28
2024-03-26T00:48:06.399Z,62.02
2024-03-26T00:50:34.544Z,61.63
2024-03-26T00:53:03.051Z,61.20
2024-03-26T00:55:31.117Z,61.19
2024-03-26T00:57:59.620Z,60.97
2024-03-26T01:00:28.072Z,61.41
2024-03-26T01:02:56.372Z,62.04
2024-03-26T01:05:24.457Z,62.21
2024-03-26T01:07:52.694Z,62.01
2024-03-26T01:10:21.065Z,61.54
2024-03-26T01:12:49.175Z,61.65
2024-03-26T01:15:17.836Z,62.03
2024-03-26T01:17:46.539Z,62.42
2024-03-26T01:20:14.878Z,62.63
2024-03-26T01:22:43.261Z,62.61
2024-03-26T01:25:11.307Z,61.60
2024-03-26T01:27:39.755Z,61.60
2024-03-26T01:30:08.704Z,61.99
2024-03-26T01:32:37.171Z,62.32
2024-03-26T01:35:06.933Z,62.29
2024-03-26T01:37:37.675Z,63.93
2024-03-26T01:40:09.581Z,63.91
2024-03-26T01:42:38.737Z,64.17
2024-03-26T01:45:08.796Z,65.18
2024-03-26T01:47:39.362Z,65.12
2024-03-26T01:50:12.273Z,64.49
2024-03-26T01:52:40.882Z,64.58
2024-03-26T01:55:09.609Z,66.13
2024-03-26T01:57:38.264Z,64.80
2024-03-26T02:00:07.962Z,64.34
2024-03-26T02:02:44.113Z,65.98
2024-03-26T02:05:12.857Z,66.06
2024-03-26T02:07:41.073Z,64.25
2024-03-26T02:10:09.673Z,64.21
2024-03-26T02:12:37.853Z,63.53
2024-03-26T02:15:06.861Z,63.82
2024-03-26T02:17:35.270Z,67.38
2024-03-26T02:20:05.016Z,67.54
2024-03-26T02:22:33.149Z,66.52
2024-03-26T02:25:01.365Z,67.04
2024-03-26T02:27:29.675Z,64.79
2024-03-26T02:29:58.223Z,64.54
2024-03-26T02:32:26.487Z,64.98
2024-03-26T02:35:10.944Z,65.54
2024-03-26T02:37:39.146Z,65.47
2024-03-26T02:40:08.163Z,66.94
2024-03-26T02:42:36.574Z,66.14
2024-03-26T02:45:05.339Z,65.18
2024-03-26T02:47:33.826Z,65.15
2024-03-26T02:50:02.358Z,66.97
2024-03-26T02:52:30.848Z,66.95
2024-03-26T02:55:01.852Z,65.80
2024-03-26T02:57:30.276Z,65.32
2024-03-26T02:59:58.434Z,62.92
2024-03-26T03:02:26.712Z,68.18
2024-03-26T03:04:54.984Z,67.83
2024-03-26T03:07:26.159Z,65.76
2024-03-26T03:09:54.299Z,66.09
2024-03-26T03:12:22.459Z,69.15
2024-03-26T03:14:50.864Z,67.74
2024-03-26T03:17:19.074Z,67.17
2024-03-26T03:19:47.331Z,68.52
2024-03-26T03:22:15.679Z,66.16
2024-03-26T03:24:43.957Z,68.05
2024-03-26T03:27:12.299Z,64.07
2024-03-26T03:29:40.600Z,63.30
2024-03-26T03:32:08.956Z,62.83
2024-03-26T03:34:37.414Z,63.44
2024-03-26T03:37:05.646Z,64.02
2024-03-26T03:39:33.986Z,62.84
2024-03-26T03:42:02.284Z,62.90
2024-03-26T03:44:36.431Z,62.59
2024-03-26T03:47:05.379Z,63.57
2024-03-26T03:49:36.533Z,65.07
2024-03-26T03:52:05.418Z,64.95
2024-03-26T03:54:33.720Z,63.51
2024-03-26T03:57:02.156Z,62.90
2024-03-26T03:59:32.538Z,62.28
2024-03-26T04:02:01.025Z,63.22
2024-03-26T04:04:29.393Z,64.08
2024-03-26T04:06:57.563Z,63.07
2024-03-26T04:09:26.536Z,62.90
2024-03-26T04:11:55.445Z,63.38
2024-03-26T04:14:23.930Z,63.34
2024-03-26T04:16:52.531Z,62.85
2024-03-26T04:19:20.779Z,62.62
2024-03-26T04:21:49.033Z,62.65
2024-03-26T04:24:17.336Z,62.72
2024-03-26T04:26:45.807Z,62.98
2024-03-26T04:29:14.226Z,63.30
2024-03-26T04:31:42.487Z,64.02
2024-03-26T04:34:13.318Z,63.85
2024-03-26T04:36:44.796Z,63.43
2024-03-26T04:39:16.733Z,65.21
2024-03-26T04:41:45.418Z,64.73
2024-03-26T04:44:13.796Z,65.07
2024-03-26T04:46:42.216Z,64.83
2024-03-26T04:49:10.538Z,64.46
2024-03-26T04:51:38.700Z,64.22
2024-03-26T04:54:07.740Z,65.67
2024-03-26T04:56:35.866Z,67.98
2024-03-26T04:59:04.080Z,68.02
2024-03-26T05:01:32.334Z,66.58
2024-03-26T05:04:00.802Z,66.05
2024-03-26T05:06:29.295Z,65.65
2024-03-26T05:08:57.631Z,65.50
2024-03-26T05:11:25.924Z,65.55
2024-03-26T05:13:57.391Z,66.16
2024-03-26T05:16:25.862Z,67.86
2024-03-26T05:18:54.021Z,68.45
2024-03-26T05:21:24.847Z,67.93
2024-03-26T05:23:53.239Z,66.89
2024-03-26T05:26:21.587Z,66.91
2024-03-26T05:28:51.693Z,69.04
2024-03-26T05:31:21.669Z,72.36
2024-03-26T05:33:50.267Z,72.19
2024-03-26T05:36:18.891Z,71.71
2024-03-26T05:38:47.645Z,72.92
2024-03-26T05:41:16.286Z,70.84
2024-03-26T05:43:47.017Z,69.67
2024-03-26T05:46:15.539Z,69.91
2024-03-26T05:48:43.569Z,69.97
2024-03-26T05:51:13.997Z,68.94
2024-03-26T05:53:47.970Z,69.92
2024-03-26T05:56:16.537Z,70.62
2024-03-26T05:58:45.332Z,69.58
2024-03-26T06:01:14.235Z,69.15
2024-03-26T06:03:45.402Z,70.35
2024-03-26T06:06:16.422Z,70.24
2024-03-26T06:08:44.732Z,72.21
2024-03-26T06:11:12.930Z,72.68
2024-03-26T06:13:41.283Z,74.20
2024-03-26T06:16:15.306Z,73.74
2024-03-26T06:18:43.700Z,72.81
2024-03-26T06:21:12.159Z,71.40
2024-03-26T06:23:40.839Z,72.54
2024-03-26T06:26:14.795Z,70.23
2024-03-26T06:28:43.159Z,69.80
2024-03-26T06:31:11.435Z,70.29
2024-03-26T06:33:39.842Z,71.24
2024-03-26T06:36:09.294Z,71.60
2024-03-26T06:38:47.664Z,71.49
2024-03-26T06:41:16.046Z,70.82
2024-03-26T06:43:44.469Z,73.35
2024-03-26T06:46:12.840Z,74.78
2024-03-26T06:48:41.368Z,75.50
2024-03-26T06:51:09.545Z,73.95
2024-03-26T06:53:38.673Z,74.37
2024-03-26T06:56:07.263Z,76.51
2024-03-26T06:58:39.538Z,77.99
2024-03-26T07:01:07.753Z,77.15
2024-03-26T07:03:35.933Z,76.84
2024-03-26T07:06:05.446Z,76.71
2024-03-26T07:08:33.786Z,70.54
2024-03-26T07:11:04.279Z,69.03
2024-03-26T07:13:32.248Z,66.48
2024-03-26T07:16:00.798Z,66.82
2024-03-26T07:18:29.124Z,67.59
2024-03-26T07:21:01.323Z,68.27
2024-03-26T07:23:29.769Z,68.28
2024-03-26T07:25:57.855Z,68.20
2024-03-26T07:28:26.217Z,67.66
2024-03-26T07:30:54.293Z,68.81
2024-03-26T07:33:22.632Z,67.71
2024-03-26T07:35:50.995Z,67.19
2024-03-26T07:38:19.445Z,65.94
2024-03-26T07:40:47.817Z,64.71
2024-03-26T07:43:23.617Z,66.68
2024-03-26T07:45:52.512Z,66.89
2024-03-26T07:48:22.378Z,64.14
2024-03-26T07:50:51.046Z,60.52
2024-03-26T07:53:19.495Z,63.39
2024-03-26T07:55:50.052Z,61.55
2024-03-26T07:58:18.340Z,61.12
2024-03-26T08:00:46.659Z,60.80
2024-03-26T08:03:14.866Z,59.95
2024-03-26T08:05:42.964Z,57.41
2024-03-26T08:08:11.358Z,54.53
2024-03-26T08:10:41.483Z,55.74
2024-03-26T08:13:13.020Z,59.69
2024-03-26T08:15:41.400Z,57.69
2024-03-26T08:18:09.664Z,54.75
2024-03-26T08:20:41.173Z,55.01
2024-03-26T08:23:09.255Z,57.14
2024-03-26T08:25:37.681Z,54.78
2024-03-26T08:28:06.248Z,56.45
2024-03-26T08:30:34.330Z,54.31
2024-03-26T08:33:02.716Z,56.02
2024-03-26T08:35:30.997Z,53.32
2024-03-26T08:37:59.205Z,54.34
2024-03-26T08:40:27.209Z,53.93
2024-03-26T08:42:55.393Z,52.62
2024-03-26T08:45:24.247Z,53.66
2024-03-26T08:47:52.999Z,50.06
2024-03-26T08:50:21.111Z,49.98
2024-03-26T08:52:49.266Z,50.73
2024-03-26T08:55:17.401Z,50.12
2024-03-26T08:57:46.114Z,48.28
2024-03-26T09:00:14.925Z,46.78
2024-03-26T09:02:43.209Z,46.97
2024-03-26T09:05:11.547Z,46.73
2024-03-26T09:07:39.808Z,46.22
2024-03-26T09:10:08.494Z,47.38
2024-03-26T09:12:37.380Z,47.40
2024-03-26T09:15:06.068Z,47.83
2024-03-26T09:17:34.664Z,46.19
2024-03-26T09:20:02.789Z,44.54
2024-03-26T09:22:30.804Z,45.26
2024-03-26T09:24:58.981Z,44.61
2024-03-26T09:27:27.328Z,44.24
2024-03-26T09:29:56.066Z,44.91
2024-03-26T09:32:24.298Z,44.32
2024-03-26T09:34:52.444Z,44.06
2024-03-26T09:37:20.889Z,43.47
2024-03-26T09:39:49.340Z,44.00
2024-03-26T09:42:20.809Z,43.58
2024-03-26T09:44:58.414Z,42.69
2024-03-26T09:47:34.228Z,42.95
2024-03-26T09:50:06.131Z,42.95
2024-03-26T09:52:39.293Z,41.23
2024-03-26T09:55:09.090Z,41.38
2024-03-26T09:57:37.413Z,40.70
2024-03-26T10:00:08.516Z,40.80
2024-03-26T10:02:38.152Z,40.47
2024-03-26T10:05:09.533Z,39.92
2024-03-26T10:07:37.820Z,39.77
2024-03-26T10:10:06.871Z,39.85
2024-03-26T10:12:34.965Z,40.05
2024-03-26T10:15:04.714Z,39.67
2024-03-26T10:17:34.144Z,40.55
2024-03-26T10:20:03.369Z,39.94
2024-03-26T10:22:31.864Z,39.36
2024-03-26T10:25:00.054Z,39.54
2024-03-26T10:27:28.161Z,38.95
2024-03-26T10:29:56.517Z,39.59
2024-03-26T10:32:26.469Z,40.28
2024-03-26T10:35:03.951Z,40.46
2024-03-26T10:37:34.123Z,40.23
2024-03-26T10:40:17.571Z,38.95
2024-03-26T10:42:52.172Z,38.09
2024-03-26T10:45:32.576Z,37.77
2024-03-26T10:48:10.864Z,37.96
2024-03-26T10:50:42.585Z,37.15
2024-03-26T10:53:12.378Z,37.56
2024-03-26T10:55:43.157Z,37.83
2024-03-26T10:58:11.286Z,37.77
2024-03-26T11:00:41.506Z,36.95
2024-03-26T11:03:11.339Z,36.57
2024-03-26T11:05:39.934Z,36.48
2024-03-26T11:08:18.361Z,36.51
2024-03-26T11:11:01.529Z,37.48
2024-03-26T11:13:31.667Z,37.29
2024-03-26T11:16:00.505Z,35.16
2024-03-26T11:18:30.177Z,34.94
2024-03-26T11:21:09.221Z,35.72
2024-03-26T11:23:38.828Z,35.69
2024-03-26T11:26:06.921Z,35.21
2024-03-26T11:28:37.325Z,36.11
2024-03-26T11:31:05.519Z,36.44
2024-03-26T11:33:33.618Z,36.98
2024-03-26T11:36:05.076Z,35.81
2024-03-26T11:38:34.176Z,34.02
2024-03-26T11:41:04.380Z,35.54
2024-03-26T11:43:36.541Z,35.33
2024-03-26T11:46:05.375Z,34.76
2024-03-26T11:48:33.493Z,34.12
2024-03-26T11:51:01.660Z,33.65
2024-03-26T11:53:29.920Z,33.10
2024-03-26T11:55:58.015Z,33.91
2024-03-26T11:58:29.144Z,34.61
2024-03-26T12:00:57.418Z,34.41
2024-03-26T12:03:25.714Z,33.79
2024-03-26T12:05:54.717Z,33.27
2024-03-26T12:08:22.958Z,33.53
2024-03-26T12:10:51.053Z,33.72
2024-03-26T12:13:19.850Z,33.55
2024-03-26T12:15:47.760Z,34.25
2024-03-26T12:18:16.344Z,33.87
2024-03-26T12:20:44.462Z,33.44
2024-03-26T12:23:12.513Z,33.94
2024-03-26T12:25:45.169Z,33.68
2024-03-26T12:28:13.851Z,32.76
2024-03-26T12:30:42.352Z,32.31
2024-03-26T12:33:10.409Z,32.65
2024-03-26T12:35:38.691Z,33.35
2024-03-26T12:38:08.075Z,33.88
2024-03-26T12:40:38.533Z,34.24
2024-03-26T12:43:07.532Z,33.54
2024-03-26T12:45:37.984Z,33.05
2024-03-26T12:48:06.424Z,33.29
2024-03-26T12:50:35.027Z,33.33
2024-03-26T12:53:03.424Z,33.86
2024-03-26T12:55:31.421Z,32.54
2024-03-26T12:57:59.545Z,32.46
2024-03-26T13:00:27.782Z,31.57
2024-03-26T13:02:55.713Z,31.71
2024-03-26T13:05:24.824Z,31.11
2024-03-26T13:07:56.143Z,31.07
2024-03-26T13:10:24.948Z,31.07
2024-03-26T13:12:53.181Z,30.78
2024-03-26T13:15:21.708Z,30.24
2024-03-26T13:17:49.747Z,31.06
2024-03-26T13:20:17.943Z,29.84
2024-03-26T13:22:48.331Z,29.86
2024-03-26T13:25:18.523Z,29.79
2024-03-26T13:27:46.365Z,29.52
2024-03-26T13:30:14.614Z,29.92
2024-03-26T13:32:42.763Z,29.50
2024-03-26T13:35:10.734Z,29.35
2024-03-26T13:37:39.745Z,29.58
2024-03-26T13:40:23.463Z,29.38
2024-03-26T13:42:57.267Z,29.00
2024-03-26T13:45:25.606Z,28.35
2024-03-26T13:47:54.124Z,28.39
2024-03-26T13:50:22.276Z,28.74
2024-03-26T13:52:50.548Z,28.56
2024-03-26T13:55:19.191Z,28.15
2024-03-26T13:57:47.297Z,28.03
2024-03-26T14:00:16.072Z,27.83
2024-03-26T14:02:44.108Z,27.85
2024-03-26T14:05:12.819Z,27.76
2024-03-26T14:07:41.036Z,27.30
2024-03-26T14:10:09.746Z,27.29
2024-03-26T14:12:37.756Z,27.16
2024-03-26T14:15:06.339Z,27.05
2024-03-26T14:17:34.365Z,26.26
2024-03-26T14:20:03.817Z,26.24
2024-03-26T14:22:31.930Z,26.18
2024-03-26T14:25:00.026Z,26.38
2024-03-26T14:27:28.460Z,26.02
2024-03-26T14:29:56.850Z,25.89
2024-03-26T14:32:24.920Z,25.91
2024-03-26T14:34:53.071Z,25.87
2024-03-26T14:37:21.213Z,25.91
2024-03-26T14:39:49.967Z,26.04
2024-03-26T14:42:18.195Z,26.33
2024-03-26T14:44:47.433Z,25.98
2024-03-26T14:47:15.410Z,25.94
2024-03-26T14:49:43.421Z,26.31
2024-03-26T14:52:11.592Z,26.11
2024-03-26T14:54:39.751Z,26.20
2024-03-26T14:57:08.729Z,25.76
2024-03-26T14:59:36.821Z,26.09
2024-03-26T15:02:07.775Z,26.54
2024-03-26T15:04:37.550Z,26.13
2024-03-26T15:07:07.958Z,25.73
2024-03-26T15:09:36.170Z,25.99
2024-03-26T15:12:04.610Z,26.35
2024-03-26T15:14:32.774Z,26.74
2024-03-26T15:17:00.799Z,27.06
2024-03-26T15:19:29.152Z,27.17
2024-03-26T15:21:57.396Z,27.44
2024-03-26T15:24:25.741Z,27.16
2024-03-26T15:27:12.408Z,27.20
2024-03-26T15:29:59.776Z,26.68
2024-03-26T15:32:27.997Z,26.56
2024-03-26T15:34:56.729Z,26.62
2024-03-26T15:37:24.985Z,26.54
2024-03-26T15:39:53.038Z,26.72
2024-03-26T15:42:21.121Z,26.98
2024-03-26T15:44:49.326Z,27.00
2024-03-26T15:47:18.351Z,27.39
2024-03-26T15:49:46.827Z,27.51
2024-03-26T15:52:15.066Z,27.50
2024-03-26T15:54:43.448Z,27.72
2024-03-26T15:57:11.570Z,27.94
2024-03-26T15:59:39.772Z,27.87
2024-03-26T16:02:07.916Z,27.92
2024-03-26T16:04:36.247Z,27.86
2024-03-26T16:07:04.641Z,27.82
2024-03-26T16:09:32.789Z,28.02
2024-03-26T16:12:05.103Z,28.07
2024-03-26T16:14:33.243Z,28.08
2024-03-26T16:17:01.434Z,28.44
2024-03-26T16:19:29.544Z,28.60
2024-03-26T16:21:57.508Z,28.69
2024-03-26T16:24:26.387Z,28.85
2024-03-26T16:26:54.494Z,29.25
2024-03-26T16:29:22.532Z,29.68
2024-03-26T16:31:50.635Z,29.91
2024-03-26T16:34:18.768Z,30.10
2024-03-26T16:36:47.339Z,30.00
2024-03-26T16:39:16.862Z,30.61
2024-03-26T16:41:47.888Z,30.42
2024-03-26T16:44:17.035Z,30.20
2024-03-26T16:46:45.149Z,30.72
2024-03-26T16:49:13.255Z,31.20
2024-03-26T16:51:41.540Z,31.66
2024-03-26T16:54:09.836Z,31.96
2024-03-26T16:56:38.028Z,31.83
2024-03-26T16:59:06.143Z,31.04
2024-03-26T17:01:34.255Z,30.62
2024-03-26T17:04:02.436Z,31.26
2024-03-26T17:06:30.706Z,31.53
2024-03-26T17:08:58.978Z,32.05
2024-03-26T17:11:31.503Z,32.52
2024-03-26T17:14:01.877Z,32.49
2024-03-26T17:16:33.564Z,32.61
2024-03-26T17:19:07.417Z,32.47
2024-03-26T17:21:35.498Z,32.52
2024-03-26T17:24:04.133Z,33.05
2024-03-26T17:26:33.554Z,33.71
2024-03-26T17:29:02.016Z,33.54
2024-03-26T17:31:30.316Z,33.97
2024-03-26T17:33:58.500Z,34.70
2024-03-26T17:36:26.703Z,34.64
2024-03-26T17:38:55.575Z,34.32
2024-03-26T17:41:23.732Z,34.18
2024-03-26T17:43:52.020Z,34.82
2024-03-26T17:46:20.260Z,35.04
2024-03-26T17:48:48.564Z,35.03
2024-03-26T17:51:16.799Z,34.11
2024-03-26T17:53:44.959Z,33.76
2024-03-26T17:56:13.057Z,34.26
2024-03-26T17:58:41.204Z,34.45
2024-03-26T18:01:10.613Z,34.83
2024-03-26T18:03:39.046Z,35.61
2024-03-26T18:06:07.224Z,35.58
2024-03-26T18:08:35.485Z,35.81
2024-03-26T18:11:09.812Z,35.73
2024-03-26T18:13:37.960Z,35.38
2024-03-26T18:16:06.921Z,36.89
2024-03-26T18:18:35.086Z,37.11
2024-03-26T18:21:07.243Z,37.89
2024-03-26T18:23:35.780Z,37.68
2024-03-26T18:26:05.773Z,37.36
2024-03-26T18:28:35.108Z,37.21
2024-03-26T18:31:06.854Z,38.02
2024-03-26T18:33:35.308Z,39.83
2024-03-26T18:36:05.319Z,39.33
2024-03-26T18:38:34.956Z,39.41
2024-03-26T18:41:07.816Z,39.48
2024-03-26T18:43:37.568Z,39.51
2024-03-26T18:46:25.288Z,39.86
2024-03-26T18:48:53.358Z,40.27
2024-03-26T18:51:21.425Z,40.49
2024-03-26T18:53:49.662Z,40.40
2024-03-26T18:56:18.138Z,40.11
2024-03-26T18:58:46.695Z,40.64
2024-03-26T19:01:16.492Z,40.58
2024-03-26T19:03:48.237Z,40.41
2024-03-26T19:06:17.625Z,41.49
2024-03-26T19:08:46.107Z,40.95
2024-03-26T19:11:14.227Z,40.50
2024-03-26T19:13:42.624Z,40.04
2024-03-26T19:16:11.018Z,40.33
2024-03-26T19:18:39.134Z,40.33
2024-03-26T19:21:08.030Z,41.89
2024-03-26T19:23:37.091Z,41.39
2024-03-26T19:26:07.408Z,42.29
2024-03-26T19:28:36.799Z,41.13
2024-03-26T19:31:07.836Z,41.68
2024-03-26T19:33:36.456Z,41.49
2024-03-26T19:36:10.472Z,41.39
2024-03-26T19:38:39.250Z,40.92
2024-03-26T19:41:09.143Z,40.08
2024-03-26T19:43:40.189Z,40.29
2024-03-26T19:46:10.167Z,39.83
2024-03-26T19:48:39.144Z,39.89
2024-03-26T19:51:08.409Z,39.48
2024-03-26T19:53:36.832Z,38.95
2024-03-26T19:56:12.290Z,38.95
2024-03-26T19:58:43.361Z,39.95
2024-03-26T20:01:12.273Z,39.53
2024-03-26T20:03:40.502Z,40.05
2024-03-26T20:06:13.257Z,40.19
2024-03-26T20:08:44.622Z,40.07
2024-03-26T20:11:14.593Z,40.48
2024-03-26T20:13:42.814Z,39.77
2024-03-26T20:16:12.322Z,39.80
2024-03-26T20:18:40.713Z,39.35
2024-03-26T20:21:08.944Z,38.84
2024-03-26T20:23:37.587Z,38.89
2024-03-26T20:26:09.189Z,39.20
2024-03-26T20:28:38.313Z,39.08
2024-03-26T20:31:12.434Z,38.93
2024-03-26T20:33:41.800Z,39.78
2024-03-26T20:36:16.991Z,40.34
2024-03-26T20:38:45.216Z,41.42
2024-03-26T20:41:13.187Z,39.33
2024-03-26T20:43:41.606Z,39.12
2024-03-26T20:46:10.236Z,40.32
2024-03-26T20:48:38.507Z,39.95
2024-03-26T20:51:10.904Z,41.01
2024-03-26T20:53:39.777Z,41.28
2024-03-26T20:56:10.733Z,41.62
2024-03-26T20:58:38.943Z,41.49
2024-03-26T21:01:15.676Z,42.21
2024-03-26T21:03:45.436Z,41.23
2024-03-26T21:06:13.517Z,41.53
2024-03-26T21:08:41.612Z,41.47
2024-03-26T21:11:11.917Z,42.26
2024-03-26T21:13:40.527Z,43.07
2024-03-26T21:16:12.036Z,43.43
2024-03-26T21:18:48.625Z,43.82
2024-03-26T21:21:21.114Z,43.82
2024-03-26T21:23:49.527Z,44.09
2024-03-26T21:26:19.089Z,44.09
2024-03-26T21:28:47.554Z,44.14
2024-03-26T21:31:15.628Z,44.49
2024-03-26T21:33:43.920Z,43.70
2024-03-26T21:36:13.633Z,42.09
2024-03-26T21:38:42.198Z,43.68
2024-03-26T21:41:13.128Z,43.75
2024-03-26T21:43:41.311Z,43.84
2024-03-26T21:46:09.322Z,44.39
2024-03-26T21:48:37.507Z,42.33
2024-03-26T21:51:06.097Z,41.83
2024-03-26T21:53:34.207Z,41.54
2024-03-26T21:56:04.156Z,42.89
2024-03-26T21:58:32.513Z,42.93
2024-03-26T22:01:05.475Z,42.78
2024-03-26T22:03:34.011Z,43.29
2024-03-26T22:06:02.253Z,43.23
2024-03-26T22:08:31.704Z,43.19
2024-03-26T22:11:02.774Z,43.30
2024-03-26T22:13:31.108Z,43.90
2024-03-26T22:15:59.331Z,44.09
2024-03-26T22:18:27.711Z,43.99
2024-03-26T22:21:00.646Z,43.95
2024-03-26T22:23:30.387Z,43.43
2024-03-26T22:26:00.505Z,42.33
2024-03-26T22:28:28.996Z,43.13
2024-03-26T22:30:57.427Z,43.13
2024-03-26T22:33:25.516Z,43.43
2024-03-26T22:35:53.761Z,42.42
2024-03-26T22:38:22.075Z,42.92
2024-03-26T22:40:57.764Z,44.40
2024-03-26T22:43:26.449Z,43.68
2024-03-26T22:45:59.218Z,43.36
2024-03-26T22:48:27.750Z,43.43
2024-03-26T22:50:57.696Z,42.56
2024-03-26T22:53:26.122Z,42.33
2024-03-26T22:56:02.104Z,42.45
2024-03-26T22:58:30.721Z,42.18
2024-03-26T23:00:58.845Z,42.77
2024-03-26T23:03:27.797Z,43.57
2024-03-26T23:05:59.848Z,43.72
2024-03-26T23:08:28.208Z,44.00
2024-03-26T23:10:56.584Z,44.13
2024-03-26T23:13:25.770Z,43.80
2024-03-26T23:15:54.028Z,43.78
2024-03-26T23:18:22.414Z,44.91
2024-03-26T23:20:50.642Z,47.29
2024-03-26T23:23:18.929Z,46.26
2024-03-26T23:25:47.304Z,47.02
2024-03-26T23:28:16.584Z,47.95
2024-03-26T23:30:47.173Z,48.42
2024-03-26T23:33:15.254Z,47.05
2024-03-26T23:35:46.548Z,46.46
2024-03-26T23:38:15.397Z,47.46
2024-03-26T23:40:43.559Z,48.21
2024-03-26T23:43:11.646Z,49.02
2024-03-26T23:45:39.641Z,49.75
2024-03-26T23:48:07.767Z,51.79
2024-03-26T23:50:35.855Z,49.50
2024-03-26T23:53:04.219Z,51.52
2024-03-26T23:55:32.945Z,52.01
2024-03-26T23:58:01.708Z,48.53
